| Date | Time | Temp. (oF) | Dew Point (oF) | Rel. Hum. (%) | Press. (in.) | Wind Dir. | Wind Speed (mph) | Hourly Rainfall (in.) |
|
|---|---|---|---|---|---|---|---|---|---|
| 1 | 08/22 | 00:00 | 65 | 57 | 76 | 30.26 | S | 0 | 0.00 |
| 2 | 08/21 | 23:00 | 66 | 56 | 72 | 30.25 | S | 0 | 0.00 |
| 3 | 08/21 | 22:00 | 70 | 56 | 62 | 30.23 | SSE | 0 | 0.00 |
| 4 | 08/21 | 21:00 | 73 | 56 | 57 | 30.22 | SSE | 0 | 0.00 |
| 5 | 08/21 | 20:00 | 77 | 57 | 51 | 30.20 | S | 0 | 0.00 |
| 6 | 08/21 | 19:00 | 80 | 56 | 45 | 30.18 | SSW | 0 | 0.00 |
| 7 | 08/21 | 18:00 | 83 | 55 | 39 | 30.18 | SSE | 0 | 0.00 |
| 8 | 08/21 | 17:00 | 84 | 54 | 37 | 30.19 | SSW | 4 | 0.00 |
| 9 | 08/21 | 16:00 | 85 | 53 | 35 | 30.20 | E | 0 | 0.00 |
| 10 | 08/21 | 15:00 | 84 | 56 | 39 | 30.23 | SSW | 0 | 0.00 |
| 11 | 08/21 | 14:00 | 82 | 54 | 39 | 30.25 | S | 0 | 0.00 |
| 12 | 08/21 | 13:00 | 81 | 54 | 41 | 30.27 | NNW | 2 | 0.00 |
| 13 | 08/21 | 12:00 | 79 | 56 | 46 | 30.28 | SSW | 4 | 0.00 |
| 14 | 08/21 | 11:00 | 76 | 55 | 49 | 30.28 | ESE | 0 | 0.00 |
| 15 | 08/21 | 10:00 | 70 | 59 | 69 | 30.28 | SSE | 0 | 0.00 |
| 16 | 08/21 | 09:00 | 64 | 59 | 86 | 30.28 | E | 0 | 0.00 |
| 17 | 08/21 | 08:00 | 57 | 56 | 98 | 30.26 | ENE | 0 | 0.00 |
| 18 | 08/21 | 07:00 | 52 | 51 | 100 | 30.25 | ENE | 0 | 0.00 |
| 19 | 08/21 | 06:00 | 52 | 51 | 99 | 30.24 | NNE | 0 | 0.00 |
| 20 | 08/21 | 05:00 | 53 | 52 | 98 | 30.23 | NNE | 0 | 0.00 |
| 21 | 08/21 | 04:00 | 54 | 53 | 98 | 30.23 | NNE | 0 | 0.00 |
| 22 | 08/21 | 03:00 | 55 | 53 | 96 | 30.22 | S | 0 | 0.00 |
| 23 | 08/21 | 02:00 | 56 | 54 | 94 | 30.21 | SSW | 0 | 0.00 |
| 24 | 08/21 | 01:00 | 57 | 54 | 91 | 30.21 | SSW | 0 | 0.00 |